createdAt,value
2018-11-20T00:01:50.729Z,20.60
2018-11-20T00:04:15.585Z,21.50
2018-11-20T00:06:53.905Z,24.10
2018-11-20T00:09:26.476Z,19.63
2018-11-20T00:11:53.120Z,21.93
2018-11-20T00:14:18.263Z,21.40
2018-11-20T00:16:50.391Z,25.70
2018-11-20T00:19:19.437Z,23.77
2018-11-20T00:22:00.906Z,20.07
2018-11-20T00:24:25.774Z,17.80
2018-11-20T00:26:50.594Z,19.17
2018-11-20T00:29:10.337Z,21.47
2018-11-20T00:31:41.003Z,22.00
2018-11-20T00:34:07.249Z,22.20
2018-11-20T00:36:25.287Z,23.80
2018-11-20T00:38:50.487Z,23.57
2018-11-20T00:41:17.872Z,24.17
2018-11-20T00:43:53.124Z,21.40
2018-11-20T00:46:25.067Z,20.90
2018-11-20T00:48:56.088Z,22.27
2018-11-20T00:51:12.800Z,20.13
2018-11-20T00:53:39.064Z,25.10
2018-11-20T00:56:56.388Z,21.93
2018-11-20T00:59:12.047Z,22.83
2018-11-20T01:01:37.408Z,23.20
2018-11-20T01:04:19.284Z,22.50
2018-11-20T01:06:44.689Z,25.13
2018-11-20T01:09:17.197Z,23.53
2018-11-20T01:11:58.529Z,23.07
2018-11-20T01:14:23.857Z,24.23
2018-11-20T01:16:49.010Z,21.70
2018-11-20T01:19:13.796Z,26.30
2018-11-20T01:21:39.204Z,29.60
2018-11-20T01:24:04.536Z,23.70
2018-11-20T01:26:45.967Z,24.03
2018-11-20T01:29:18.483Z,23.40
2018-11-20T01:31:44.793Z,25.17
2018-11-20T01:34:29.590Z,24.90
2018-11-20T01:36:50.368Z,29.93
2018-11-20T01:39:15.743Z,22.77
2018-11-20T01:41:40.630Z,25.10
2018-11-20T01:44:22.141Z,29.30
2018-11-20T01:46:47.268Z,31.40
2018-11-20T01:49:19.502Z,26.90
2018-11-20T01:52:00.793Z,28.60
2018-11-20T01:54:25.977Z,33.30
2018-11-20T01:56:52.249Z,29.60
2018-11-20T01:59:18.957Z,32.13
2018-11-20T02:01:42.536Z,32.50
2018-11-20T02:04:08.875Z,36.23
2018-11-20T02:06:44.213Z,25.53
2018-11-20T02:09:09.261Z,30.10
2018-11-20T02:11:47.798Z,29.87
2018-11-20T02:14:42.575Z,24.83
2018-11-20T02:17:18.638Z,20.83
2018-11-20T02:19:53.763Z,26.30
2018-11-20T02:22:23.228Z,30.20
2018-11-20T02:24:58.554Z,26.37
2018-11-20T02:27:20.009Z,25.40
2018-11-20T02:29:45.171Z,26.80
2018-11-20T02:32:10.003Z,28.43
2018-11-20T02:34:39.114Z,28.70
2018-11-20T02:37:06.581Z,32.40
2018-11-20T02:39:29.121Z,33.37
2018-11-20T02:41:54.341Z,26.60
2018-11-20T02:44:19.359Z,33.30
2018-11-20T02:46:48.896Z,31.60
2018-11-20T02:49:23.931Z,31.70
2018-11-20T02:52:05.460Z,35.67
2018-11-20T02:54:30.820Z,34.93
2018-11-20T02:56:55.946Z,28.53
2018-11-20T02:59:21.111Z,30.33
2018-11-20T03:01:40.418Z,36.80
2018-11-20T03:04:05.484Z,33.43
2018-11-20T03:06:28.802Z,27.70
2018-11-20T03:08:51.082Z,33.60
2018-11-20T03:11:26.438Z,32.00
2018-11-20T03:13:46.642Z,33.60
2018-11-20T03:16:11.876Z,29.87
2018-11-20T03:18:33.569Z,33.27
2018-11-20T03:20:57.241Z,29.47
2018-11-20T03:23:22.311Z,34.50
2018-11-20T03:26:09.511Z,34.20
2018-11-20T03:28:30.952Z,30.80
2018-11-20T03:31:28.791Z,35.53
2018-11-20T03:34:10.401Z,29.67
2018-11-20T03:36:39.358Z,28.23
2018-11-20T03:39:04.444Z,29.50
2018-11-20T03:41:29.665Z,32.70
2018-11-20T03:44:04.956Z,33.80
2018-11-20T03:46:29.664Z,33.30
2018-11-20T03:49:13.851Z,30.23
2018-11-20T03:51:40.248Z,37.43
2018-11-20T03:54:12.579Z,30.67
2018-11-20T03:56:37.706Z,30.60
2018-11-20T03:59:22.349Z,29.67
2018-11-20T04:01:52.421Z,28.90
2018-11-20T04:04:15.269Z,30.90
2018-11-20T04:06:40.045Z,32.30
2018-11-20T04:09:08.854Z,29.63
2018-11-20T04:11:31.565Z,35.27
2018-11-20T04:13:55.721Z,35.50
2018-11-20T04:16:21.945Z,33.17
2018-11-20T04:18:42.386Z,31.77
2018-11-20T04:21:11.961Z,32.47
2018-11-20T04:23:36.625Z,28.77
2018-11-20T04:26:21.258Z,34.27
2018-11-20T04:28:39.384Z,31.80
2018-11-20T04:31:58.152Z,34.27
2018-11-20T04:34:30.659Z,26.27
2018-11-20T04:37:04.560Z,27.70
2018-11-20T04:39:30.765Z,31.00
2018-11-20T04:41:57.311Z,28.47
2018-11-20T04:44:20.546Z,25.87
2018-11-20T04:47:02.089Z,33.20
2018-11-20T04:49:31.818Z,28.07
2018-11-20T04:51:49.190Z,29.60
2018-11-20T04:54:16.100Z,29.33
2018-11-20T04:56:41.878Z,25.33
2018-11-20T04:59:03.565Z,24.27
2018-11-20T05:01:28.269Z,24.90
2018-11-20T05:03:54.524Z,28.93
2018-11-20T05:06:36.171Z,30.10
2018-11-20T05:09:14.368Z,31.57
2018-11-20T05:11:34.884Z,29.50
2018-11-20T05:14:00.668Z,26.47
2018-11-20T05:16:25.691Z,28.03
2018-11-20T05:18:57.245Z,27.50
2018-11-20T05:21:23.596Z,28.93
2018-11-20T05:23:56.167Z,29.83
2018-11-20T05:26:40.301Z,28.17
2018-11-20T05:29:22.570Z,28.17
2018-11-20T05:31:54.810Z,29.47
2018-11-20T05:34:33.132Z,30.23
2018-11-20T05:36:53.994Z,31.37
2018-11-20T05:39:16.027Z,29.33
2018-11-20T05:41:58.681Z,25.60
2018-11-20T05:44:13.956Z,28.50
2018-11-20T05:46:40.607Z,28.30
2018-11-20T05:49:16.227Z,27.37
2018-11-20T05:51:46.939Z,24.43
2018-11-20T05:54:22.230Z,25.73
2018-11-20T05:56:47.234Z,31.20
2018-11-20T05:59:06.632Z,23.97
2018-11-20T06:01:31.530Z,26.67
2018-11-20T06:03:48.131Z,26.47
2018-11-20T06:06:15.792Z,28.03
2018-11-20T06:08:40.673Z,28.50
2018-11-20T06:11:18.921Z,26.70
2018-11-20T06:13:35.380Z,28.33
2018-11-20T06:16:19.826Z,39.73
2018-11-20T06:18:45.138Z,26.13
2018-11-20T06:21:11.312Z,30.10
2018-11-20T06:23:28.782Z,31.00
2018-11-20T06:25:53.808Z,26.80
2018-11-20T06:28:19.246Z,26.50
2018-11-20T06:30:45.619Z,30.00
2018-11-20T06:33:11.886Z,28.33
2018-11-20T06:35:25.758Z,32.50
2018-11-20T06:37:50.657Z,28.13
2018-11-20T06:40:23.361Z,27.73
2018-11-20T06:43:08.374Z,28.43
2018-11-20T06:45:40.774Z,31.53
2018-11-20T06:48:07.741Z,31.90
2018-11-20T06:50:32.952Z,32.40
2018-11-20T06:52:59.290Z,27.83
2018-11-20T06:55:32.067Z,36.50
2018-11-20T06:58:01.400Z,28.50
2018-11-20T07:00:26.834Z,27.47
2018-11-20T07:02:51.780Z,29.10
2018-11-20T07:05:21.716Z,30.50
2018-11-20T07:07:41.994Z,26.67
2018-11-20T07:10:10.834Z,29.60
2018-11-20T07:12:31.737Z,25.67
2018-11-20T07:14:58.058Z,31.80
2018-11-20T07:17:35.007Z,30.33
2018-11-20T07:20:13.480Z,31.50
2018-11-20T07:22:52.449Z,36.97
2018-11-20T07:25:21.335Z,28.10
2018-11-20T07:27:44.761Z,28.47
2018-11-20T07:30:22.928Z,31.83
2018-11-20T07:32:55.556Z,27.53
2018-11-20T07:35:34.055Z,32.07
2018-11-20T07:38:03.420Z,35.00
2018-11-20T07:40:38.842Z,28.93
2018-11-20T07:43:03.829Z,30.17
2018-11-20T07:45:22.506Z,28.83
2018-11-20T07:47:48.473Z,33.20
2018-11-20T07:50:14.730Z,29.53
2018-11-20T07:52:43.949Z,30.53
2018-11-20T07:55:09.294Z,30.23
2018-11-20T07:57:47.859Z,30.47
2018-11-20T08:00:14.196Z,33.13
2018-11-20T08:02:43.726Z,37.50
2018-11-20T08:05:08.960Z,31.83
2018-11-20T08:07:38.775Z,30.87
2018-11-20T08:10:09.109Z,33.23
2018-11-20T08:12:26.661Z,28.47
2018-11-20T08:14:51.601Z,33.07
2018-11-20T08:17:20.938Z,32.60
2018-11-20T08:19:52.981Z,26.40
2018-11-20T08:22:21.924Z,31.83
2018-11-20T08:24:57.617Z,26.87
2018-11-20T08:27:16.802Z,29.73
2018-11-20T08:29:41.072Z,30.90
2018-11-20T08:32:07.422Z,28.30
2018-11-20T08:34:36.716Z,29.70
2018-11-20T08:37:01.938Z,33.67
2018-11-20T08:39:29.471Z,29.13
2018-11-20T08:42:01.696Z,31.40
2018-11-20T08:44:28.280Z,32.07
2018-11-20T08:46:54.985Z,30.50
2018-11-20T08:49:20.392Z,34.70
2018-11-20T08:51:46.705Z,28.67
2018-11-20T08:54:28.010Z,35.77
2018-11-20T08:56:53.200Z,29.97
2018-11-20T08:59:18.052Z,31.00
2018-11-20T09:01:52.919Z,36.33
2018-11-20T09:04:25.734Z,30.03
2018-11-20T09:06:51.799Z,30.17
2018-11-20T09:09:17.568Z,27.83
2018-11-20T09:11:42.866Z,28.13
2018-11-20T09:14:07.905Z,36.33
2018-11-20T09:16:26.274Z,29.57
2018-11-20T09:18:58.358Z,26.13
2018-11-20T09:21:19.115Z,32.37
2018-11-20T09:23:43.781Z,33.73
2018-11-20T09:26:08.481Z,30.87
2018-11-20T09:28:46.271Z,27.80
2018-11-20T09:31:27.858Z,25.53
2018-11-20T09:33:59.794Z,29.10
2018-11-20T09:36:29.531Z,32.03
2018-11-20T09:38:54.533Z,32.07
2018-11-20T09:41:36.378Z,34.27
2018-11-20T09:44:55.825Z,31.47
2018-11-20T09:47:21.138Z,27.63
2018-11-20T09:49:50.191Z,25.40
2018-11-20T09:52:15.512Z,26.77
2018-11-20T09:54:42.134Z,29.77
2018-11-20T09:57:14.395Z,30.97
2018-11-20T09:59:45.049Z,29.50
2018-11-20T10:02:10.395Z,28.20
2018-11-20T10:04:37.515Z,30.13
2018-11-20T10:07:03.255Z,32.73
2018-11-20T10:09:33.997Z,38.73
2018-11-20T10:12:03.154Z,31.67
2018-11-20T10:14:28.199Z,31.20
2018-11-20T10:17:09.302Z,34.17
2018-11-20T10:19:34.139Z,33.37
2018-11-20T10:22:03.637Z,30.50
2018-11-20T10:24:21.923Z,27.07
2018-11-20T10:26:54.561Z,32.10
2018-11-20T10:29:13.205Z,28.80
2018-11-20T10:31:38.109Z,26.27
2018-11-20T10:34:15.697Z,27.63
2018-11-20T10:36:52.624Z,30.73
2018-11-20T10:39:21.796Z,30.50
2018-11-20T10:41:46.729Z,33.97
2018-11-20T10:44:21.575Z,26.30
2018-11-20T10:46:54.318Z,32.23
2018-11-20T10:49:20.571Z,28.73
2018-11-20T10:51:39.742Z,28.73
2018-11-20T10:54:05.999Z,32.23
2018-11-20T10:56:35.236Z,31.10
2018-11-20T10:59:04.332Z,31.13
2018-11-20T11:01:29.561Z,30.20
2018-11-20T11:03:54.926Z,32.97
2018-11-20T11:06:19.682Z,23.93
2018-11-20T11:08:44.865Z,30.23
2018-11-20T11:11:06.828Z,26.80
2018-11-20T11:13:39.176Z,27.77
2018-11-20T11:16:12.922Z,31.37
2018-11-20T11:18:37.898Z,29.67
2018-11-20T11:21:04.588Z,30.40
2018-11-20T11:23:30.862Z,29.13
2018-11-20T11:26:08.040Z,22.70
2018-11-20T11:28:34.280Z,24.40
2018-11-20T11:30:59.517Z,23.40
2018-11-20T11:33:37.861Z,31.57
2018-11-20T11:36:10.605Z,24.33
2018-11-20T11:38:37.039Z,23.87
2018-11-20T11:41:01.910Z,23.23
2018-11-20T11:43:17.927Z,23.87
2018-11-20T11:45:53.514Z,25.97
2018-11-20T11:48:22.627Z,23.17
2018-11-20T11:50:47.786Z,25.87
2018-11-20T11:53:14.589Z,21.27
2018-11-20T11:55:40.029Z,28.97
2018-11-20T11:58:04.943Z,25.50
2018-11-20T12:00:31.995Z,23.53
2018-11-20T12:05:22.265Z,29.77
2018-11-20T12:07:54.533Z,23.77
2018-11-20T12:10:20.830Z,24.10
2018-11-20T12:12:54.095Z,23.60
2018-11-20T12:15:19.205Z,19.43
2018-11-20T12:17:44.194Z,22.07
2018-11-20T12:20:25.559Z,18.67
2018-11-20T12:23:04.122Z,22.80
2018-11-20T12:25:46.114Z,23.30
2018-11-20T12:28:11.418Z,23.33
2018-11-20T12:30:53.646Z,25.30
2018-11-20T12:33:37.493Z,22.40
2018-11-20T12:36:09.952Z,21.97
2018-11-20T12:38:51.597Z,21.33
2018-11-20T12:41:18.690Z,22.97
2018-11-20T12:43:44.265Z,28.27
2018-11-20T12:46:29.153Z,23.53
2018-11-20T12:48:58.549Z,27.10
2018-11-20T12:51:25.481Z,19.93
2018-11-20T12:53:50.038Z,22.47
2018-11-20T12:56:16.353Z,25.60
2018-11-20T12:58:41.001Z,20.80
2018-11-20T13:01:06.916Z,25.03
2018-11-20T13:03:32.938Z,19.77
2018-11-20T13:05:58.025Z,20.80
2018-11-20T13:08:23.307Z,18.83
2018-11-20T13:11:08.122Z,21.90
2018-11-20T13:13:53.362Z,20.30
2018-11-20T13:16:31.845Z,23.00
2018-11-20T13:18:57.634Z,21.13
2018-11-20T13:21:22.686Z,21.93
2018-11-20T13:23:49.491Z,18.23
2018-11-20T13:26:02.822Z,18.77
2018-11-20T13:28:35.179Z,17.90
2018-11-20T13:31:05.828Z,17.70
2018-11-20T13:33:30.954Z,17.20
2018-11-20T13:36:16.113Z,22.10
2018-11-20T13:38:57.570Z,18.50
2018-11-20T13:42:07.165Z,34.17
2018-11-20T13:44:32.909Z,20.17
2018-11-20T13:46:59.177Z,17.50
2018-11-20T13:49:31.923Z,18.10
2018-11-20T13:51:55.702Z,17.43
2018-11-20T13:54:22.707Z,16.77
2018-11-20T13:56:49.111Z,17.80
2018-11-20T13:59:24.476Z,18.57
2018-11-20T14:02:06.046Z,17.70
2018-11-20T14:04:32.393Z,15.57
2018-11-20T14:06:58.649Z,15.03
2018-11-20T14:09:35.651Z,15.93
2018-11-20T14:12:00.698Z,12.97
2018-11-20T14:14:24.273Z,15.20
2018-11-20T14:16:50.606Z,14.70
2018-11-20T14:19:19.820Z,13.60
2018-11-20T14:21:51.980Z,15.80
2018-11-20T14:24:23.992Z,14.53
2018-11-20T14:26:53.718Z,16.03
2018-11-20T14:29:20.022Z,12.77
2018-11-20T14:31:49.346Z,13.30
2018-11-20T14:34:14.805Z,14.67
2018-11-20T14:36:40.038Z,9.73
2018-11-20T14:39:08.263Z,11.85
2018-11-20T14:41:42.017Z,11.85
2018-11-20T14:44:24.150Z,10.63
2018-11-20T14:47:02.543Z,13.53
2018-11-20T14:49:31.818Z,12.03
2018-11-20T14:51:56.489Z,12.30
2018-11-20T14:54:28.911Z,12.58
2018-11-20T14:56:55.452Z,13.70
2018-11-20T14:59:22.495Z,11.27
2018-11-20T15:01:47.527Z,8.88
2018-11-20T15:04:12.218Z,9.48
2018-11-20T15:06:45.168Z,9.80
2018-11-20T15:09:03.965Z,13.27
2018-11-20T15:11:39.057Z,13.47
2018-11-20T15:14:05.820Z,13.70
2018-11-20T15:16:31.617Z,12.03
2018-11-20T15:19:03.793Z,12.27
2018-11-20T15:21:45.309Z,10.90
2018-11-20T15:24:20.919Z,10.53
2018-11-20T15:26:59.531Z,17.40
2018-11-20T15:29:41.212Z,12.30
2018-11-20T15:32:13.687Z,12.80
2018-11-20T15:34:38.497Z,10.97
2018-11-20T15:37:20.348Z,17.53
2018-11-20T15:39:40.034Z,13.50
2018-11-20T15:42:07.043Z,12.30
2018-11-20T15:44:32.986Z,17.77
2018-11-20T15:46:57.943Z,13.15
2018-11-20T15:49:35.148Z,15.10
2018-11-20T15:51:58.038Z,15.60
2018-11-20T15:54:22.973Z,12.70
2018-11-20T15:56:52.069Z,13.25
2018-11-20T15:59:17.130Z,14.63
2018-11-20T16:01:44.232Z,14.93
2018-11-20T16:04:09.344Z,14.93
2018-11-20T16:06:54.118Z,15.50
2018-11-20T16:09:32.989Z,16.40
2018-11-20T16:12:02.691Z,18.50
2018-11-20T16:14:27.753Z,16.83
2018-11-20T16:17:16.787Z,17.23
2018-11-20T16:19:44.211Z,11.87
2018-11-20T16:22:19.584Z,16.23
2018-11-20T16:24:52.707Z,13.70
2018-11-20T16:27:17.975Z,16.53
2018-11-20T16:29:47.247Z,22.67
2018-11-20T16:32:14.043Z,19.98
2018-11-20T16:34:40.578Z,18.33
2018-11-20T16:37:19.098Z,14.98
2018-11-20T16:39:45.411Z,14.37
2018-11-20T16:42:17.572Z,14.40
2018-11-20T16:44:55.473Z,16.43
2018-11-20T16:47:19.552Z,17.13
2018-11-20T16:49:51.518Z,23.23
2018-11-20T16:52:16.575Z,20.07
2018-11-20T16:54:41.901Z,16.60
2018-11-20T16:57:13.606Z,18.87
2018-11-20T16:59:49.083Z,15.87
2018-11-20T17:02:08.382Z,15.88
2018-11-20T17:04:40.512Z,16.60
2018-11-20T17:07:22.356Z,17.37
2018-11-20T17:10:00.626Z,17.40
2018-11-20T17:12:29.917Z,16.60
2018-11-20T17:14:58.830Z,18.70
2018-11-20T17:17:22.773Z,20.80
2018-11-20T17:19:45.226Z,15.47
2018-11-20T17:22:10.095Z,15.00
2018-11-20T17:24:35.305Z,13.20
2018-11-20T17:27:02.794Z,15.88
2018-11-20T17:29:39.459Z,12.07
2018-11-20T17:31:59.679Z,14.90
2018-11-20T17:34:25.054Z,16.63
2018-11-20T17:36:57.957Z,15.17
2018-11-20T17:39:35.513Z,15.80
2018-11-20T17:42:09.332Z,15.88
2018-11-20T17:44:42.041Z,12.80
2018-11-20T17:47:08.367Z,14.77
2018-11-20T17:49:40.736Z,14.40
2018-11-20T17:52:22.347Z,15.65
2018-11-20T17:54:51.565Z,18.50
2018-11-20T17:57:24.728Z,15.32
2018-11-20T17:59:48.354Z,14.67
2018-11-20T18:02:30.020Z,15.05
2018-11-20T18:04:55.133Z,16.10
2018-11-20T18:07:20.537Z,15.13
2018-11-20T18:09:49.761Z,13.70
2018-11-20T18:12:34.435Z,15.10
2018-11-20T18:15:16.066Z,18.03
2018-11-20T18:17:45.005Z,17.60
2018-11-20T18:20:23.511Z,19.23
2018-11-20T18:22:52.693Z,15.50
2018-11-20T18:25:31.372Z,15.40
2018-11-20T18:28:16.056Z,17.15
2018-11-20T18:30:41.295Z,17.17
2018-11-20T18:33:15.803Z,14.87
2018-11-20T18:35:43.390Z,16.17
2018-11-20T18:38:09.329Z,13.60
2018-11-20T18:40:54.310Z,12.47
2018-11-20T18:43:19.485Z,14.97
2018-11-20T18:45:51.725Z,18.30
2018-11-20T18:48:17.041Z,17.20
2018-11-20T18:50:52.862Z,18.73
2018-11-20T18:53:21.205Z,17.53
2018-11-20T18:55:46.729Z,15.80
2018-11-20T18:58:08.992Z,14.77
2018-11-20T19:00:32.894Z,14.40
2018-11-20T19:02:57.916Z,21.50
2018-11-20T19:05:23.412Z,19.50
2018-11-20T19:07:50.409Z,15.47
2018-11-20T19:10:19.892Z,17.40
2018-11-20T19:12:49.194Z,16.57
2018-11-20T19:15:30.676Z,19.17
2018-11-20T19:18:12.243Z,18.00
2018-11-20T19:20:28.595Z,19.93
2018-11-20T19:23:09.903Z,15.47
2018-11-20T19:25:39.829Z,17.37
2018-11-20T19:28:24.678Z,21.37
2018-11-20T19:30:55.315Z,22.77
2018-11-20T19:33:20.533Z,18.00
2018-11-20T19:35:59.091Z,28.30
2018-11-20T19:38:40.743Z,16.73
2018-11-20T19:41:19.577Z,15.13
2018-11-20T19:43:44.723Z,21.23
2018-11-20T19:46:11.054Z,18.10
2018-11-20T19:48:28.162Z,17.13
2018-11-20T19:50:57.757Z,15.37
2018-11-20T19:53:38.400Z,20.03
2018-11-20T19:56:04.622Z,17.07
2018-11-20T19:58:34.657Z,18.00
2018-11-20T20:01:00.308Z,17.75
2018-11-20T20:03:30.548Z,20.07
2018-11-20T20:06:09.129Z,18.80
2018-11-20T20:08:41.250Z,24.20
2018-11-20T20:11:06.455Z,21.70
2018-11-20T20:13:42.286Z,24.20
2018-11-20T20:16:21.028Z,19.30
2018-11-20T20:18:53.391Z,23.23
2018-11-20T20:21:22.599Z,22.50
2018-11-20T20:23:57.819Z,20.33
2018-11-20T20:26:22.751Z,23.77
2018-11-20T20:28:41.272Z,22.32
2018-11-20T20:31:11.592Z,18.67
2018-11-20T20:33:52.493Z,17.70
2018-11-20T20:36:17.485Z,13.97
2018-11-20T20:38:42.372Z,16.17
2018-11-20T20:41:23.856Z,17.20
2018-11-20T20:44:05.231Z,17.30
2018-11-20T20:46:29.306Z,17.07
2018-11-20T20:48:52.762Z,15.87
2018-11-20T20:51:19.583Z,20.00
2018-11-20T20:54:27.811Z,20.50
2018-11-20T20:56:55.817Z,27.67
2018-11-20T20:59:27.827Z,24.43
2018-11-20T21:01:58.763Z,30.53
2018-11-20T21:04:23.912Z,26.00
2018-11-20T21:06:55.810Z,26.27
2018-11-20T21:09:20.028Z,22.37
2018-11-20T21:11:51.273Z,22.00
2018-11-20T21:14:34.608Z,26.00
2018-11-20T21:16:52.476Z,23.07
2018-11-20T21:19:17.587Z,37.73
2018-11-20T21:21:41.403Z,26.53
2018-11-20T21:24:12.906Z,24.53
2018-11-20T21:26:38.367Z,38.07
2018-11-20T21:29:12.253Z,31.57
2018-11-20T21:31:31.361Z,25.27
2018-11-20T21:34:02.528Z,18.90
2018-11-20T21:36:30.922Z,21.53
2018-11-20T21:38:55.006Z,16.73
2018-11-20T21:41:19.150Z,16.03
2018-11-20T21:43:33.128Z,17.30
2018-11-20T21:45:56.835Z,18.63
2018-11-20T21:48:22.078Z,17.37
2018-11-20T21:50:50.004Z,17.30
2018-11-20T21:53:14.931Z,18.00
2018-11-20T21:55:48.985Z,17.27
2018-11-20T21:58:21.866Z,17.13
2018-11-20T22:01:09.785Z,18.93
2018-11-20T22:03:39.458Z,17.77
2018-11-20T22:06:13.390Z,17.00
2018-11-20T22:08:38.869Z,19.87
2018-11-20T22:11:03.948Z,17.17
2018-11-20T22:13:35.026Z,16.33
2018-11-20T22:15:59.256Z,18.47
2018-11-20T22:18:23.130Z,15.67
2018-11-20T22:20:46.843Z,20.17
2018-11-20T22:23:18.234Z,16.57
2018-11-20T22:25:43.295Z,15.50
2018-11-20T22:28:00.508Z,19.47
2018-11-20T22:30:40.375Z,17.63
2018-11-20T22:33:06.956Z,16.50
2018-11-20T22:35:34.812Z,18.07
2018-11-20T22:37:55.038Z,14.67
2018-11-20T22:40:14.455Z,15.53
2018-11-20T22:42:42.590Z,14.00
2018-11-20T22:45:13.552Z,16.83
2018-11-20T22:47:33.588Z,16.97
2018-11-20T22:49:46.064Z,18.40
2018-11-20T22:52:11.601Z,17.17
2018-11-20T22:54:37.794Z,14.30
2018-11-20T22:56:55.523Z,14.93
2018-11-20T22:59:35.910Z,18.27
2018-11-20T23:01:52.345Z,17.17
2018-11-20T23:04:26.158Z,15.33
2018-11-20T23:06:52.656Z,19.27
2018-11-20T23:08:58.727Z,17.20
2018-11-20T23:11:04.838Z,20.10
2018-11-20T23:13:11.310Z,18.03
2018-11-20T23:15:17.412Z,18.03
2018-11-20T23:17:23.573Z,17.10
2018-11-20T23:19:29.642Z,18.93
2018-11-20T23:21:35.878Z,17.37
2018-11-20T23:23:42.032Z,17.40
2018-11-20T23:25:48.098Z,17.53
2018-11-20T23:27:54.147Z,18.40
2018-11-20T23:30:00.918Z,19.17
2018-11-20T23:32:07.173Z,21.37
2018-11-20T23:34:13.365Z,17.90
2018-11-20T23:36:19.428Z,17.33
2018-11-20T23:38:25.509Z,21.23
2018-11-20T23:40:31.565Z,19.40
2018-11-20T23:42:37.860Z,21.20
2018-11-20T23:44:43.925Z,21.37
2018-11-20T23:46:50.312Z,17.87
2018-11-20T23:48:56.380Z,18.30
2018-11-20T23:51:02.498Z,17.83
2018-11-20T23:53:08.630Z,15.63
2018-11-20T23:55:15.524Z,17.90
2018-11-20T23:57:21.817Z,18.50
2018-11-20T23:59:26.466Z,19.50
